createdAt,value
2017-09-23T00:00:24.013Z,0
2017-09-23T00:01:34.283Z,0
2017-09-23T00:02:44.531Z,0
2017-09-23T00:03:54.782Z,0
2017-09-23T00:05:04.796Z,0
2017-09-23T00:06:15.055Z,0
2017-09-23T00:07:25.302Z,0
2017-09-23T00:08:35.556Z,0
2017-09-23T00:09:45.816Z,0
2017-09-23T00:10:56.313Z,0
2017-09-23T00:12:05.934Z,0
2017-09-23T00:13:15.869Z,0
2017-09-23T00:14:25.800Z,0
2017-09-23T00:15:36.061Z,0
2017-09-23T00:16:46.684Z,0
2017-09-23T00:17:56.935Z,0
2017-09-23T00:19:06.868Z,0
2017-09-23T00:20:17.128Z,0
2017-09-23T00:21:27.061Z,0
2017-09-23T00:22:37.247Z,0
2017-09-23T00:23:47.490Z,0
2017-09-23T00:24:57.424Z,0
2017-09-23T00:26:07.353Z,0
2017-09-23T00:27:17.594Z,0
2017-09-23T00:28:28.210Z,0
2017-09-23T00:29:38.470Z,0
2017-09-23T00:30:48.728Z,0
2017-09-23T00:31:58.656Z,0
2017-09-23T00:33:08.902Z,0
2017-09-23T00:34:19.398Z,0
2017-09-23T00:35:29.657Z,0
2017-09-23T00:36:39.908Z,0
2017-09-23T00:37:49.838Z,0
2017-09-23T00:39:00.102Z,0
2017-09-23T00:40:10.603Z,0
2017-09-23T00:41:20.222Z,0
2017-09-23T00:42:30.145Z,0
2017-09-23T00:43:40.387Z,0
2017-09-23T00:44:50.323Z,0
2017-09-23T00:46:00.827Z,0
2017-09-23T00:47:10.796Z,0
2017-09-23T00:48:20.410Z,0
2017-09-23T00:49:30.667Z,0
2017-09-23T00:50:40.915Z,0
2017-09-23T00:51:51.409Z,0
2017-09-23T00:53:01.023Z,0
2017-09-23T00:54:10.949Z,0
2017-09-23T00:55:20.893Z,0
2017-09-23T00:56:31.150Z,0
2017-09-23T00:57:41.698Z,0
2017-09-23T00:58:51.652Z,0
2017-09-23T01:00:01.584Z,0
2017-09-23T01:01:11.519Z,0
2017-09-23T01:02:21.454Z,0
2017-09-23T01:03:31.950Z,0
2017-09-23T01:04:42.205Z,0
2017-09-23T01:05:52.130Z,0
2017-09-23T01:07:01.751Z,0
2017-09-23T01:08:11.370Z,0
2017-09-23T01:09:21.972Z,0
2017-09-23T01:10:31.917Z,0
2017-09-23T01:11:42.169Z,0
2017-09-23T01:12:52.429Z,0
2017-09-23T01:14:02.368Z,0
2017-09-23T01:15:12.568Z,0
2017-09-23T01:16:22.514Z,0
2017-09-23T01:17:32.456Z,0
2017-09-23T01:18:42.073Z,0
2017-09-23T01:19:52.327Z,0
2017-09-23T01:21:02.925Z,0
2017-09-23T01:22:13.173Z,0
2017-09-23T01:23:23.432Z,0
2017-09-23T01:24:33.677Z,0
2017-09-23T01:25:43.924Z,0
2017-09-23T01:26:54.109Z,0
2017-09-23T01:28:04.365Z,0
2017-09-23T01:29:14.626Z,0
2017-09-23T01:30:24.877Z,0
2017-09-23T01:31:35.122Z,0
2017-09-23T01:32:45.412Z,0
2017-09-23T01:33:55.661Z,0
2017-09-23T01:35:05.914Z,0
2017-09-23T01:36:16.168Z,0
2017-09-23T01:37:26.413Z,0
2017-09-23T01:38:36.704Z,0
2017-09-23T01:39:46.948Z,0
2017-09-23T01:40:57.202Z,0
2017-09-23T01:42:07.446Z,0
2017-09-23T01:43:17.690Z,0
2017-09-23T01:44:28.284Z,0
2017-09-23T01:45:38.240Z,0
2017-09-23T01:46:48.492Z,0
2017-09-23T01:47:58.734Z,0
2017-09-23T01:49:08.666Z,0
2017-09-23T01:50:18.863Z,0
2017-09-23T01:51:28.799Z,0
2017-09-23T01:52:39.046Z,0
2017-09-23T01:53:49.292Z,0
2017-09-23T01:54:59.547Z,0
2017-09-23T01:56:10.157Z,0
2017-09-23T01:57:20.403Z,0
2017-09-23T01:58:30.652Z,0
2017-09-23T01:59:40.901Z,0
2017-09-23T02:00:51.162Z,0
2017-09-23T02:02:01.661Z,0
2017-09-23T02:03:11.907Z,0
2017-09-23T02:04:21.860Z,0
2017-09-23T02:05:31.801Z,0
2017-09-23T02:06:42.070Z,0
2017-09-23T02:07:52.616Z,0
2017-09-23T02:09:02.549Z,0
2017-09-23T02:10:12.480Z,0
2017-09-23T02:11:22.720Z,0
2017-09-23T02:12:32.651Z,0
2017-09-23T02:13:42.932Z,0
2017-09-23T02:14:52.873Z,0
2017-09-23T02:16:03.114Z,0
2017-09-23T02:17:13.372Z,0
2017-09-23T02:18:23.615Z,0
2017-09-23T02:19:34.115Z,0
2017-09-23T02:20:44.360Z,0
2017-09-23T02:21:54.293Z,0
2017-09-23T02:23:04.561Z,0
2017-09-23T02:24:14.804Z,0
2017-09-23T02:25:25.413Z,0
2017-09-23T02:26:35.670Z,0
2017-09-23T02:27:45.594Z,0
2017-09-23T02:28:55.846Z,0
2017-09-23T02:30:05.478Z,0
2017-09-23T02:31:15.656Z,0
2017-09-23T02:32:25.931Z,0
2017-09-23T02:33:35.862Z,0
2017-09-23T02:34:45.808Z,0
2017-09-23T02:35:56.056Z,0
2017-09-23T02:37:06.570Z,0
2017-09-23T02:38:16.819Z,0
2017-09-23T02:39:27.071Z,0
2017-09-23T02:40:37.320Z,0
2017-09-23T02:41:47.577Z,0
2017-09-23T02:42:58.081Z,0
2017-09-23T02:44:08.326Z,0
2017-09-23T02:45:18.627Z,0
2017-09-23T02:46:28.562Z,0
2017-09-23T02:47:38.812Z,0
2017-09-23T02:48:48.732Z,0
2017-09-23T02:49:58.988Z,0
2017-09-23T02:51:08.614Z,0
2017-09-23T02:52:18.543Z,0
2017-09-23T02:53:28.794Z,0
2017-09-23T02:54:39.339Z,0
2017-09-23T02:55:49.588Z,0
2017-09-23T02:56:59.523Z,0
2017-09-23T02:58:09.777Z,0
2017-09-23T02:59:20.017Z,0
2017-09-23T03:00:30.516Z,0
2017-09-23T03:01:40.769Z,0
2017-09-23T03:02:51.018Z,0
2017-09-23T03:04:00.635Z,0
2017-09-23T03:05:10.906Z,0
2017-09-23T03:06:21.503Z,0
2017-09-23T03:07:31.744Z,0
2017-09-23T03:08:41.999Z,0
2017-09-23T03:09:52.260Z,0
2017-09-23T03:11:02.188Z,0
2017-09-23T03:12:12.373Z,0
2017-09-23T03:13:22.622Z,0
2017-09-23T03:14:32.557Z,0
2017-09-23T03:15:42.804Z,0
2017-09-23T03:16:53.060Z,0
2017-09-23T03:18:03.650Z,0
2017-09-23T03:19:13.586Z,0
2017-09-23T03:20:23.510Z,0
2017-09-23T03:21:33.436Z,0
2017-09-23T03:22:43.681Z,0
2017-09-23T03:23:53.868Z,0
2017-09-23T03:25:03.806Z,0
2017-09-23T03:26:14.056Z,0
2017-09-23T03:27:23.983Z,0
2017-09-23T03:28:33.920Z,0
2017-09-23T03:29:44.519Z,0
2017-09-23T03:30:54.453Z,0
2017-09-23T03:32:04.708Z,0
2017-09-23T03:33:14.652Z,0
2017-09-23T03:34:24.273Z,0
2017-09-23T03:35:34.510Z,0
2017-09-23T03:36:44.445Z,0
2017-09-23T03:37:54.692Z,0
2017-09-23T03:39:04.946Z,0
2017-09-23T03:40:15.195Z,0
2017-09-23T03:41:25.738Z,0
2017-09-23T03:42:35.363Z,0
2017-09-23T03:43:45.622Z,0
2017-09-23T03:44:55.543Z,0
2017-09-23T03:46:05.798Z,0
2017-09-23T03:47:16.301Z,0
2017-09-23T03:48:26.580Z,0
2017-09-23T03:49:36.826Z,0
2017-09-23T03:50:46.758Z,0
2017-09-23T03:51:56.997Z,0
2017-09-23T03:53:07.183Z,0
2017-09-23T03:54:17.432Z,0
2017-09-23T03:55:27.377Z,0
2017-09-23T03:56:37.636Z,0
2017-09-23T03:57:47.876Z,0
2017-09-23T03:58:58.382Z,0
2017-09-23T04:00:08.661Z,0
2017-09-23T04:01:18.272Z,0
2017-09-23T04:02:28.547Z,0
2017-09-23T04:03:38.795Z,0
2017-09-23T04:04:49.334Z,0
2017-09-23T04:05:59.590Z,0
2017-09-23T04:07:09.847Z,0
2017-09-23T04:08:20.099Z,0
2017-09-23T04:09:30.341Z,0
2017-09-23T04:10:40.526Z,0
2017-09-23T04:11:50.455Z,0
2017-09-23T04:13:00.384Z,0
2017-09-23T04:14:10.314Z,0
2017-09-23T04:15:20.557Z,0
2017-09-23T04:16:31.051Z,0
2017-09-23T04:17:40.996Z,0
2017-09-23T04:18:50.922Z,0
2017-09-23T04:20:00.539Z,0
2017-09-23T04:21:10.801Z,0
2017-09-23T04:22:21.375Z,0
2017-09-23T04:23:31.620Z,0
2017-09-23T04:24:41.879Z,0
2017-09-23T04:25:51.805Z,0
2017-09-23T04:27:02.053Z,0
2017-09-23T04:28:12.554Z,0
2017-09-23T04:29:22.804Z,0
2017-09-23T04:30:33.079Z,0
2017-09-23T04:31:43.011Z,0
2017-09-23T04:32:52.937Z,0
2017-09-23T04:34:03.426Z,0
2017-09-23T04:35:13.671Z,0
2017-09-23T04:36:23.600Z,0
2017-09-23T04:37:33.864Z,0
2017-09-23T04:38:44.106Z,0
2017-09-23T04:39:54.697Z,0
2017-09-23T04:41:04.632Z,0
2017-09-23T04:42:14.890Z,0
2017-09-23T04:43:25.135Z,0
2017-09-23T04:44:35.065Z,0
2017-09-23T04:45:45.260Z,5
2017-09-23T04:46:55.190Z,5
2017-09-23T04:48:05.436Z,5
2017-09-23T04:49:15.687Z,5
2017-09-23T04:50:25.943Z,5
2017-09-23T04:51:36.558Z,10
2017-09-23T04:52:46.492Z,10
2017-09-23T04:53:56.742Z,10
2017-09-23T04:55:06.675Z,10
2017-09-23T04:56:16.925Z,15
2017-09-23T04:57:27.480Z,15
2017-09-23T04:58:37.742Z,15
2017-09-23T04:59:47.988Z,20
2017-09-23T05:00:58.226Z,20
2017-09-23T05:02:08.471Z,20
2017-09-23T05:03:19.072Z,25
2017-09-23T05:04:29.331Z,25
2017-09-23T05:05:39.575Z,30
2017-09-23T05:06:49.504Z,30
2017-09-23T05:07:59.750Z,30
2017-09-23T05:09:10.248Z,35
2017-09-23T05:10:20.504Z,35
2017-09-23T05:11:30.750Z,40
2017-09-23T05:12:40.990Z,40
2017-09-23T05:13:50.924Z,45
2017-09-23T05:15:01.537Z,45
2017-09-23T05:16:11.467Z,45
2017-09-23T05:17:21.413Z,50
2017-09-23T05:18:31.677Z,50
2017-09-23T05:19:41.921Z,55
2017-09-23T05:20:52.149Z,55
2017-09-23T05:22:01.778Z,60
2017-09-23T05:23:11.717Z,65
2017-09-23T05:24:21.655Z,65
2017-09-23T05:25:31.575Z,70
2017-09-23T05:26:41.163Z,75
2017-09-23T05:27:50.481Z,75
2017-09-23T05:29:00.730Z,80
2017-09-23T05:30:10.681Z,85
2017-09-23T05:31:20.930Z,90
2017-09-23T05:32:31.425Z,95
2017-09-23T05:33:41.688Z,100
2017-09-23T05:34:51.626Z,105
2017-09-23T05:36:01.555Z,110
2017-09-23T05:37:11.810Z,115
2017-09-23T05:38:22.408Z,120
2017-09-23T05:39:32.037Z,120
2017-09-23T05:40:42.283Z,125
2017-09-23T05:41:51.593Z,130
2017-09-23T05:43:01.525Z,135
2017-09-23T05:44:12.037Z,140
2017-09-23T05:45:21.956Z,145
2017-09-23T05:46:32.213Z,150
2017-09-23T05:47:42.456Z,155
2017-09-23T05:48:52.386Z,155
2017-09-23T05:50:02.258Z,160
2017-09-23T05:51:12.196Z,165
2017-09-23T05:52:22.446Z,170
2017-09-23T05:53:32.686Z,175
2017-09-23T05:54:42.936Z,180
2017-09-23T05:55:53.484Z,185
2017-09-23T05:57:03.730Z,190
2017-09-23T05:58:13.986Z,195
2017-09-23T05:59:24.236Z,200
2017-09-23T06:00:34.481Z,205
2017-09-23T06:01:44.713Z,205
2017-09-23T06:02:54.338Z,210
2017-09-23T06:04:04.735Z,215
2017-09-23T06:05:14.994Z,215
2017-09-23T06:06:25.253Z,215
2017-09-23T06:07:35.863Z,215
2017-09-23T06:08:46.108Z,215
2017-09-23T06:09:56.369Z,220
2017-09-23T06:11:06.622Z,220
2017-09-23T06:12:16.575Z,220
2017-09-23T06:13:27.219Z,220
2017-09-23T06:14:37.486Z,220
2017-09-23T06:15:47.737Z,220
2017-09-23T06:16:57.684Z,230
2017-09-23T06:18:07.950Z,225
2017-09-23T06:19:18.553Z,225
2017-09-23T06:20:28.807Z,230
2017-09-23T06:21:38.752Z,230
2017-09-23T06:22:48.999Z,230
2017-09-23T06:23:58.952Z,235
2017-09-23T06:25:09.284Z,230
2017-09-23T06:26:19.562Z,230
2017-09-23T06:27:29.816Z,230
2017-09-23T06:28:40.067Z,230
2017-09-23T06:29:50.336Z,230
2017-09-23T06:31:00.938Z,230
2017-09-23T06:32:11.190Z,235
2017-09-23T06:33:21.437Z,230
2017-09-23T06:34:31.720Z,235
2017-09-23T06:35:41.969Z,235
2017-09-23T06:36:52.167Z,235
2017-09-23T06:38:02.430Z,240
2017-09-23T06:39:12.687Z,245
2017-09-23T06:40:22.953Z,250
2017-09-23T06:41:33.205Z,255
2017-09-23T06:42:43.813Z,255
2017-09-23T06:43:53.425Z,260
2017-09-23T06:45:03.048Z,260
2017-09-23T06:46:13.299Z,260
2017-09-23T06:47:23.239Z,255
2017-09-23T06:48:33.450Z,260
2017-09-23T06:49:43.393Z,265
2017-09-23T06:50:53.015Z,265
2017-09-23T06:52:03.264Z,260
2017-09-23T06:53:13.511Z,260
2017-09-23T06:54:24.127Z,260
2017-09-23T06:55:34.377Z,260
2017-09-23T06:56:44.655Z,265
2017-09-23T06:57:54.908Z,270
2017-09-23T06:59:04.855Z,270
2017-09-23T07:00:15.404Z,265
2017-09-23T07:01:25.345Z,275
2017-09-23T07:02:35.586Z,275
2017-09-23T07:03:45.843Z,275
2017-09-23T07:04:55.791Z,270
2017-09-23T07:06:06.395Z,265
2017-09-23T07:07:16.024Z,260
2017-09-23T07:08:25.966Z,265
2017-09-23T07:09:35.924Z,275
2017-09-23T07:10:45.862Z,275
2017-09-23T07:11:56.064Z,275
2017-09-23T07:13:06.325Z,280
2017-09-23T07:14:16.273Z,275
2017-09-23T07:15:26.549Z,285
2017-09-23T07:16:36.799Z,295
2017-09-23T07:17:47.297Z,315
2017-09-23T07:18:57.552Z,315
2017-09-23T07:20:07.197Z,320
2017-09-23T07:21:17.454Z,330
2017-09-23T07:22:27.708Z,335
2017-09-23T07:23:38.214Z,345
2017-09-23T07:24:48.153Z,355
2017-09-23T07:25:58.400Z,370
2017-09-23T07:27:08.029Z,385
2017-09-23T07:28:18.295Z,395
2017-09-23T07:29:28.904Z,410
2017-09-23T07:30:39.154Z,420
2017-09-23T07:31:49.398Z,430
2017-09-23T07:32:59.662Z,445
2017-09-23T07:34:09.924Z,460
2017-09-23T07:35:20.538Z,465
2017-09-23T07:36:30.487Z,470
2017-09-23T07:37:40.415Z,475
2017-09-23T07:38:50.845Z,480
2017-09-23T07:40:01.096Z,480
2017-09-23T07:41:11.609Z,480
2017-09-23T07:42:21.886Z,480
2017-09-23T07:43:31.821Z,480
2017-09-23T07:44:42.067Z,475
2017-09-23T07:45:52.321Z,470
2017-09-23T07:47:02.929Z,465
2017-09-23T07:48:13.181Z,460
2017-09-23T07:49:23.440Z,460
2017-09-23T07:50:33.067Z,445
2017-09-23T07:51:43.331Z,440
2017-09-23T07:52:53.849Z,435
2017-09-23T07:54:04.114Z,430
2017-09-23T07:55:13.429Z,430
2017-09-23T07:56:23.677Z,430
2017-09-23T07:57:32.980Z,435
2017-09-23T07:58:43.208Z,435
2017-09-23T07:59:52.529Z,435
2017-09-23T08:01:02.785Z,440
2017-09-23T08:02:13.050Z,455
2017-09-23T08:03:23.295Z,460
2017-09-23T08:04:33.494Z,470
2017-09-23T08:05:43.453Z,475
2017-09-23T08:06:53.706Z,490
2017-09-23T08:08:03.640Z,505
2017-09-23T08:09:13.896Z,520
2017-09-23T08:10:24.526Z,530
2017-09-23T08:11:34.469Z,545
2017-09-23T08:12:44.723Z,560
2017-09-23T08:13:54.991Z,570
2017-09-23T08:15:05.264Z,575
2017-09-23T08:16:15.841Z,580
2017-09-23T08:17:26.096Z,590
2017-09-23T08:18:36.049Z,605
2017-09-23T08:19:45.988Z,620
2017-09-23T08:20:55.616Z,620
2017-09-23T08:22:06.142Z,620
2017-09-23T08:23:15.761Z,615
2017-09-23T08:24:26.027Z,630
2017-09-23T08:25:36.302Z,640
2017-09-23T08:26:46.556Z,655
2017-09-23T08:27:57.157Z,660
2017-09-23T08:29:07.429Z,690
2017-09-23T08:30:17.688Z,715
2017-09-23T08:31:27.939Z,705
2017-09-23T08:32:37.570Z,690
2017-09-23T08:33:48.082Z,675
2017-09-23T08:34:58.355Z,655
2017-09-23T08:36:08.627Z,630
2017-09-23T08:37:18.880Z,630
2017-09-23T08:38:28.509Z,640
2017-09-23T08:39:38.713Z,645
2017-09-23T08:40:48.671Z,645
2017-09-23T08:41:58.623Z,650
2017-09-23T08:43:08.560Z,680
2017-09-23T08:44:18.511Z,725
2017-09-23T08:45:28.811Z,750
2017-09-23T08:46:38.757Z,750
2017-09-23T08:47:48.696Z,755
2017-09-23T08:48:58.630Z,760
2017-09-23T08:50:08.569Z,785
2017-09-23T08:51:19.195Z,800
2017-09-23T08:52:29.134Z,770
2017-09-23T08:53:39.080Z,745
2017-09-23T08:54:49.337Z,715
2017-09-23T08:55:59.595Z,700
2017-09-23T08:57:09.892Z,690
2017-09-23T08:58:19.833Z,690
2017-09-23T08:59:30.098Z,675
2017-09-23T09:00:39.724Z,675
2017-09-23T09:01:49.994Z,665
2017-09-23T09:03:00.517Z,645
2017-09-23T09:04:10.449Z,640
2017-09-23T09:05:20.714Z,635
2017-09-23T09:06:30.974Z,630
2017-09-23T09:07:41.235Z,635
2017-09-23T09:08:51.759Z,635
2017-09-23T09:10:01.693Z,635
2017-09-23T09:11:11.639Z,640
2017-09-23T09:12:21.949Z,645
2017-09-23T09:13:32.207Z,645
2017-09-23T09:14:42.812Z,655
2017-09-23T09:15:53.079Z,660
2017-09-23T09:17:03.048Z,660
2017-09-23T09:18:13.309Z,665
2017-09-23T09:19:23.569Z,665
2017-09-23T09:20:34.089Z,675
2017-09-23T09:21:44.345Z,685
2017-09-23T09:22:54.282Z,695
2017-09-23T09:24:04.225Z,715
2017-09-23T09:25:14.174Z,735
2017-09-23T09:26:24.426Z,750
2017-09-23T09:27:34.674Z,770
2017-09-23T09:28:44.615Z,810
2017-09-23T09:29:54.568Z,835
2017-09-23T09:31:04.831Z,870
2017-09-23T09:32:15.028Z,925
2017-09-23T09:33:24.970Z,1015
2017-09-23T09:34:35.233Z,1115
2017-09-23T09:35:45.491Z,1125
2017-09-23T09:36:55.751Z,1120
2017-09-23T09:38:06.004Z,1145
2017-09-23T09:39:15.937Z,1200
2017-09-23T09:40:26.187Z,1215
2017-09-23T09:41:36.454Z,1240
2017-09-23T09:42:46.400Z,1310
2017-09-23T09:43:56.937Z,1325
2017-09-23T09:45:06.898Z,1370
2017-09-23T09:46:17.169Z,1395
2017-09-23T09:47:27.416Z,1375
2017-09-23T09:48:37.361Z,1385
2017-09-23T09:49:47.876Z,1355
2017-09-23T09:50:57.822Z,1275
2017-09-23T09:52:07.769Z,1220
2017-09-23T09:53:17.389Z,1250
2017-09-23T09:54:27.651Z,1290
2017-09-23T09:55:38.171Z,1225
2017-09-23T09:56:48.448Z,1200
2017-09-23T09:57:58.716Z,1250
2017-09-23T09:59:08.974Z,1300
2017-09-23T10:00:18.923Z,1495
2017-09-23T10:01:29.496Z,1590
2017-09-23T10:02:39.448Z,1460
2017-09-23T10:03:49.073Z,1535
2017-09-23T10:04:59.334Z,1585
2017-09-23T10:06:09.278Z,1365
2017-09-23T10:07:19.797Z,1245
2017-09-23T10:08:30.071Z,1235
2017-09-23T10:09:40.334Z,1470
2017-09-23T10:10:50.290Z,1320
2017-09-23T10:12:00.566Z,1275
2017-09-23T10:13:10.765Z,1225
2017-09-23T10:14:20.406Z,1320
2017-09-23T10:15:30.671Z,1605
2017-09-23T10:16:40.937Z,1660
2017-09-23T10:17:51.195Z,1855
2017-09-23T10:19:01.753Z,2045
2017-09-23T10:20:12.012Z,1970
2017-09-23T10:21:21.712Z,1930
2017-09-23T10:22:31.970Z,1920
2017-09-23T10:23:42.231Z,1785
2017-09-23T10:24:52.460Z,1585
2017-09-23T10:26:02.416Z,1305
2017-09-23T10:27:12.684Z,1380
2017-09-23T10:28:22.964Z,1725
2017-09-23T10:29:33.241Z,2050
2017-09-23T10:30:43.765Z,1670
2017-09-23T10:31:53.720Z,1530
2017-09-23T10:33:04.000Z,1870
2017-09-23T10:34:14.269Z,1695
2017-09-23T10:35:24.556Z,1420
2017-09-23T10:36:35.070Z,1435
2017-09-23T10:37:45.334Z,1585
2017-09-23T10:38:55.285Z,2015
2017-09-23T10:40:05.237Z,1595
2017-09-23T10:41:15.196Z,1975
2017-09-23T10:42:25.696Z,1985
2017-09-23T10:43:35.645Z,2080
2017-09-23T10:44:45.630Z,1585
2017-09-23T10:45:55.893Z,1420
2017-09-23T10:47:06.154Z,1370
2017-09-23T10:48:16.682Z,1975
2017-09-23T10:49:26.960Z,1955
2017-09-23T10:50:36.914Z,1725
2017-09-23T10:51:46.868Z,1605
2017-09-23T10:52:56.819Z,1355
2017-09-23T10:54:07.020Z,1470
2017-09-23T10:55:16.975Z,1565
2017-09-23T10:56:27.240Z,1240
2017-09-23T10:57:37.516Z,1405
2017-09-23T10:58:47.784Z,1120
2017-09-23T10:59:58.300Z,1000
2017-09-23T11:01:08.164Z,910
2017-09-23T11:02:18.109Z,875
2017-09-23T11:03:28.373Z,835
2017-09-23T11:04:38.004Z,810
2017-09-23T11:05:48.214Z,790
2017-09-23T11:06:58.500Z,775
2017-09-23T11:08:08.756Z,755
2017-09-23T11:09:19.039Z,740
2017-09-23T11:10:29.007Z,735
2017-09-23T11:11:39.511Z,725
2017-09-23T11:12:49.803Z,715
2017-09-23T11:14:00.065Z,700
2017-09-23T11:15:10.336Z,695
2017-09-23T11:16:20.616Z,685
2017-09-23T11:17:30.811Z,675
2017-09-23T11:18:40.751Z,650
2017-09-23T11:19:51.018Z,635
2017-09-23T11:21:01.275Z,615
2017-09-23T11:22:11.540Z,605
2017-09-23T11:23:21.748Z,595
2017-09-23T11:24:32.012Z,590
2017-09-23T11:25:42.266Z,590
2017-09-23T11:26:52.534Z,590
2017-09-23T11:28:02.169Z,590
2017-09-23T11:29:12.678Z,600
2017-09-23T11:30:22.312Z,615
2017-09-23T11:31:32.582Z,640
2017-09-23T11:32:42.213Z,685
2017-09-23T11:33:52.475Z,745
2017-09-23T11:35:02.668Z,885
2017-09-23T11:36:12.618Z,1075
2017-09-23T11:37:22.881Z,1440
2017-09-23T11:38:33.173Z,1740
2017-09-23T11:39:42.807Z,1815
2017-09-23T11:40:53.357Z,1865
2017-09-23T11:42:03.301Z,1355
2017-09-23T11:43:12.615Z,1165
2017-09-23T11:44:22.882Z,1270
2017-09-23T11:45:33.166Z,1065
2017-09-23T11:46:43.357Z,1050
2017-09-23T11:47:53.317Z,1055
2017-09-23T11:49:03.584Z,1060
2017-09-23T11:50:13.844Z,995
2017-09-23T11:51:23.797Z,910
2017-09-23T11:52:34.312Z,890
2017-09-23T11:53:44.582Z,960
2017-09-23T11:54:54.520Z,915
2017-09-23T11:56:04.772Z,865
2017-09-23T11:57:15.056Z,815
2017-09-23T11:58:25.563Z,775
2017-09-23T11:59:35.830Z,755
2017-09-23T12:00:45.795Z,735
2017-09-23T12:01:56.051Z,715
2017-09-23T12:03:06.004Z,690
2017-09-23T12:04:16.575Z,670
2017-09-23T12:05:26.835Z,665
2017-09-23T12:06:37.080Z,650
2017-09-23T12:07:47.345Z,640
2017-09-23T12:08:57.296Z,630
2017-09-23T12:10:07.506Z,620
2017-09-23T12:11:17.464Z,595
2017-09-23T12:12:27.418Z,575
2017-09-23T12:13:37.706Z,545
2017-09-23T12:14:47.651Z,510
2017-09-23T12:15:58.189Z,490
2017-09-23T12:17:08.461Z,475
2017-09-23T12:18:18.717Z,460
2017-09-23T12:19:28.658Z,440
2017-09-23T12:20:38.953Z,425
2017-09-23T12:21:49.473Z,420
2017-09-23T12:22:59.097Z,400
2017-09-23T12:24:09.351Z,390
2017-09-23T12:25:19.284Z,380
2017-09-23T12:26:29.241Z,375
2017-09-23T12:27:39.755Z,360
2017-09-23T12:28:50.019Z,350
2017-09-23T12:30:00.287Z,345
2017-09-23T12:31:10.239Z,345
2017-09-23T12:32:20.508Z,345
2017-09-23T12:33:31.019Z,345
2017-09-23T12:34:40.969Z,345
2017-09-23T12:35:51.223Z,355
2017-09-23T12:37:01.498Z,350
2017-09-23T12:38:11.763Z,345
2017-09-23T12:39:22.329Z,335
2017-09-23T12:40:32.590Z,330
2017-09-23T12:41:42.525Z,330
2017-09-23T12:42:52.144Z,335
2017-09-23T12:44:02.399Z,335
2017-09-23T12:45:12.910Z,340
2017-09-23T12:46:23.158Z,340
2017-09-23T12:47:33.422Z,335
2017-09-23T12:48:43.728Z,340
2017-09-23T12:49:53.673Z,340
2017-09-23T12:51:03.871Z,340
2017-09-23T12:52:14.127Z,345
2017-09-23T12:53:24.410Z,350
2017-09-23T12:54:34.673Z,350
2017-09-23T12:55:44.946Z,350
2017-09-23T12:56:54.874Z,345
2017-09-23T12:58:05.166Z,335
2017-09-23T12:59:15.098Z,325
2017-09-23T13:00:25.367Z,310
2017-09-23T13:01:35.331Z,295
2017-09-23T13:02:45.217Z,285
2017-09-23T13:03:54.840Z,280
2017-09-23T13:05:05.099Z,275
2017-09-23T13:06:15.364Z,275
2017-09-23T13:07:25.647Z,275
2017-09-23T13:08:35.837Z,275
2017-09-23T13:09:45.778Z,280
2017-09-23T13:10:55.740Z,275
2017-09-23T13:12:06.008Z,275
2017-09-23T13:13:15.623Z,280
2017-09-23T13:14:26.133Z,285
2017-09-23T13:15:36.390Z,290
2017-09-23T13:16:46.334Z,295
2017-09-23T13:17:56.264Z,300
2017-09-23T13:19:06.524Z,310
2017-09-23T13:20:17.053Z,320
2017-09-23T13:21:26.689Z,340
2017-09-23T13:22:36.956Z,350
2017-09-23T13:23:46.911Z,365
2017-09-23T13:24:57.188Z,385
2017-09-23T13:26:07.709Z,400
2017-09-23T13:27:17.972Z,420
2017-09-23T13:28:27.943Z,440
2017-09-23T13:29:38.196Z,460
2017-09-23T13:30:48.165Z,485
2017-09-23T13:31:58.714Z,505
2017-09-23T13:33:08.965Z,530
2017-09-23T13:34:18.922Z,550
2017-09-23T13:35:29.187Z,570
2017-09-23T13:36:39.442Z,575
2017-09-23T13:37:49.999Z,550
2017-09-23T13:39:00.255Z,515
2017-09-23T13:40:10.218Z,460
2017-09-23T13:41:20.474Z,435
2017-09-23T13:42:30.414Z,410
2017-09-23T13:43:40.932Z,390
2017-09-23T13:44:50.898Z,375
2017-09-23T13:46:00.838Z,360
2017-09-23T13:47:10.801Z,345
2017-09-23T13:48:21.081Z,330
2017-09-23T13:49:31.618Z,310
2017-09-23T13:50:41.881Z,295
2017-09-23T13:51:51.823Z,280
2017-09-23T13:53:02.081Z,260
2017-09-23T13:54:12.351Z,245
2017-09-23T13:55:22.550Z,230
2017-09-23T13:56:32.797Z,220
2017-09-23T13:57:43.061Z,215
2017-09-23T13:58:53.005Z,210
2017-09-23T14:00:02.643Z,200
2017-09-23T14:01:12.843Z,200
2017-09-23T14:02:22.779Z,195
2017-09-23T14:03:33.035Z,195
2017-09-23T14:04:42.996Z,200
2017-09-23T14:05:53.251Z,200
2017-09-23T14:07:03.752Z,200
2017-09-23T14:08:14.014Z,200
2017-09-23T14:09:24.273Z,200
2017-09-23T14:10:34.224Z,195
2017-09-23T14:11:44.494Z,190
2017-09-23T14:12:55.001Z,185
2017-09-23T14:14:04.975Z,185
2017-09-23T14:15:14.630Z,185
2017-09-23T14:16:24.884Z,180
2017-09-23T14:17:34.830Z,175
2017-09-23T14:18:45.026Z,170
2017-09-23T14:19:54.978Z,170
2017-09-23T14:21:04.962Z,165
2017-09-23T14:22:14.269Z,160
2017-09-23T14:23:24.526Z,155
2017-09-23T14:24:34.763Z,150
2017-09-23T14:25:45.024Z,140
2017-09-23T14:26:54.981Z,140
2017-09-23T14:28:05.277Z,145
2017-09-23T14:29:15.528Z,145
2017-09-23T14:30:26.046Z,150
2017-09-23T14:31:36.028Z,155
2017-09-23T14:32:46.300Z,155
2017-09-23T14:33:56.556Z,150
2017-09-23T14:35:06.179Z,145
2017-09-23T14:36:16.415Z,145
2017-09-23T14:37:26.034Z,145
2017-09-23T14:38:35.970Z,145
2017-09-23T14:39:45.929Z,145
2017-09-23T14:40:56.187Z,145
2017-09-23T14:42:06.701Z,145
2017-09-23T14:43:16.960Z,145
2017-09-23T14:44:26.591Z,145
2017-09-23T14:45:36.849Z,145
2017-09-23T14:46:46.781Z,145
2017-09-23T14:47:57.517Z,140
2017-09-23T14:49:07.783Z,140
2017-09-23T14:50:18.041Z,140
2017-09-23T14:51:28.314Z,135
2017-09-23T14:52:38.590Z,135
2017-09-23T14:53:48.783Z,135
2017-09-23T14:54:58.721Z,140
2017-09-23T14:56:08.673Z,140
2017-09-23T14:57:18.930Z,145
2017-09-23T14:58:29.179Z,150
2017-09-23T14:59:39.690Z,155
2017-09-23T15:00:49.000Z,160
2017-09-23T15:01:59.262Z,165
2017-09-23T15:03:09.509Z,170
2017-09-23T15:04:19.803Z,170
2017-09-23T15:05:29.995Z,170
2017-09-23T15:06:40.254Z,170
2017-09-23T15:07:50.519Z,170
2017-09-23T15:09:00.771Z,170
2017-09-23T15:10:10.707Z,170
2017-09-23T15:11:21.214Z,165
2017-09-23T15:12:31.162Z,165
2017-09-23T15:13:41.115Z,160
2017-09-23T15:14:50.736Z,150
2017-09-23T15:16:00.672Z,140
2017-09-23T15:17:11.176Z,135
2017-09-23T15:18:21.123Z,135
2017-09-23T15:19:31.394Z,135
2017-09-23T15:20:41.653Z,135
2017-09-23T15:21:51.599Z,125
2017-09-23T15:23:02.112Z,120
2017-09-23T15:24:12.053Z,110
2017-09-23T15:25:22.312Z,105
2017-09-23T15:26:32.567Z,100
2017-09-23T15:27:42.503Z,90
2017-09-23T15:28:53.012Z,85
2017-09-23T15:30:02.944Z,80
2017-09-23T15:31:13.197Z,80
2017-09-23T15:32:23.140Z,75
2017-09-23T15:33:33.398Z,75
2017-09-23T15:34:43.594Z,70
2017-09-23T15:35:53.850Z,70
2017-09-23T15:37:03.796Z,65
2017-09-23T15:38:14.049Z,65
2017-09-23T15:39:24.308Z,60
2017-09-23T15:40:34.812Z,55
2017-09-23T15:41:44.450Z,55
2017-09-23T15:42:54.709Z,50
2017-09-23T15:44:04.980Z,45
2017-09-23T15:45:14.930Z,45
2017-09-23T15:46:25.132Z,45
2017-09-23T15:47:35.379Z,40
2017-09-23T15:48:45.637Z,40
2017-09-23T15:49:55.906Z,35
2017-09-23T15:51:05.839Z,35
2017-09-23T15:52:16.423Z,35
2017-09-23T15:53:26.384Z,30
2017-09-23T15:54:36.329Z,30
2017-09-23T15:55:45.632Z,30
2017-09-23T15:56:55.591Z,25
2017-09-23T15:58:06.103Z,25
2017-09-23T15:59:16.053Z,25
2017-09-23T16:00:26.314Z,25
2017-09-23T16:01:35.951Z,25
2017-09-23T16:02:46.220Z,20
2017-09-23T16:03:56.804Z,20
2017-09-23T16:05:06.748Z,20
2017-09-23T16:06:16.691Z,20
2017-09-23T16:07:26.641Z,20
2017-09-23T16:08:36.912Z,20
2017-09-23T16:09:47.415Z,20
2017-09-23T16:10:57.380Z,20
2017-09-23T16:12:07.636Z,20
2017-09-23T16:13:17.583Z,20
2017-09-23T16:14:27.535Z,20
2017-09-23T16:15:38.054Z,15
2017-09-23T16:16:47.998Z,15
2017-09-23T16:17:57.930Z,15
2017-09-23T16:19:07.557Z,15
2017-09-23T16:20:17.853Z,15
2017-09-23T16:21:28.037Z,15
2017-09-23T16:22:37.978Z,15
2017-09-23T16:23:47.939Z,15
2017-09-23T16:24:58.195Z,15
2017-09-23T16:26:08.149Z,15